createdAt,value
2023-05-06T00:00:49.849Z,13.80
2023-05-06T00:15:53.975Z,13.80
2023-05-06T00:20:45.687Z,13.90
2023-05-06T00:25:37.412Z,13.90
2023-05-06T00:30:39.101Z,14.10
2023-05-06T00:35:35.992Z,14.10
2023-05-06T00:45:35.184Z,14.00
2023-05-06T00:50:30.215Z,14.10
2023-05-06T00:55:22.298Z,13.90
2023-05-06T01:00:14.375Z,13.90
2023-05-06T01:05:07.592Z,14.00
2023-05-06T01:10:27.893Z,14.00
2023-05-06T01:20:56.464Z,14.20
2023-05-06T01:25:48.356Z,14.10
2023-05-06T01:31:11.738Z,14.00
2023-05-06T01:42:10.422Z,14.00
2023-05-06T01:47:02.762Z,14.00
2023-05-06T01:51:55.700Z,14.00
2023-05-06T01:56:47.396Z,14.00
2023-05-06T02:01:39.099Z,14.00
2023-05-06T02:06:30.828Z,14.00
2023-05-06T02:11:23.756Z,13.90
2023-05-06T02:16:15.853Z,14.00
2023-05-06T02:21:11.999Z,14.00
2023-05-06T02:26:04.314Z,14.00
2023-05-06T02:30:59.372Z,14.10
2023-05-06T02:35:51.809Z,14.10
2023-05-06T02:40:43.495Z,14.10
2023-05-06T02:45:35.251Z,14.00
2023-05-06T02:50:27.067Z,14.00
2023-05-06T02:55:19.405Z,14.00
2023-05-06T03:00:12.704Z,14.00
2023-05-06T03:05:04.910Z,13.90
2023-05-06T03:09:56.688Z,14.00
2023-05-06T03:14:48.379Z,13.90
2023-05-06T03:19:40.089Z,14.00
2023-05-06T03:24:31.813Z,14.00
2023-05-06T03:29:23.571Z,13.90
2023-05-06T03:34:15.257Z,14.00
2023-05-06T03:39:07.182Z,14.00
2023-05-06T03:43:58.848Z,13.90
2023-05-06T03:48:54.212Z,14.00
2023-05-06T03:53:46.527Z,14.00
2023-05-06T03:58:38.203Z,13.90
2023-05-06T04:03:30.229Z,13.90
2023-05-06T04:08:22.016Z,13.90
2023-05-06T04:13:13.790Z,14.10
2023-05-06T04:18:08.305Z,13.90
2023-05-06T04:23:00.300Z,13.90
2023-05-06T04:27:52.066Z,13.90
2023-05-06T04:32:43.731Z,13.90
2023-05-06T04:37:35.426Z,13.90
2023-05-06T04:42:27.316Z,14.00
2023-05-06T04:47:19.173Z,14.10
2023-05-06T04:52:18.663Z,14.10
2023-05-06T04:57:10.399Z,14.10
2023-05-06T05:02:02.108Z,14.10
2023-05-06T05:06:53.850Z,14.10
2023-05-06T05:11:45.531Z,14.20
2023-05-06T05:16:37.489Z,14.20
2023-05-06T05:21:29.319Z,14.30
2023-05-06T05:26:20.990Z,14.30
2023-05-06T05:31:12.765Z,14.40
2023-05-06T05:36:05.233Z,14.40
2023-05-06T05:40:57.031Z,14.40
2023-05-06T05:45:48.706Z,14.50
2023-05-06T05:50:40.384Z,14.70
2023-05-06T05:55:32.123Z,14.80
2023-05-06T06:56:42.969Z,16.40
2023-05-06T07:01:34.989Z,16.60
2023-05-06T07:06:27.216Z,17.00
2023-05-06T07:16:25.252Z,17.80
2023-05-06T07:21:18.619Z,18.30
2023-05-06T07:26:11.253Z,18.30
2023-05-06T07:31:03.108Z,18.20
2023-05-06T07:35:55.227Z,18.50
2023-05-06T07:40:47.716Z,18.90
2023-05-06T07:45:40.540Z,18.60
2023-05-06T07:50:34.489Z,18.70
2023-05-06T08:41:52.749Z,19.10
2023-05-06T08:51:54.624Z,18.90
2023-05-06T08:56:53.561Z,19.00
2023-05-06T09:01:45.310Z,19.00
2023-05-06T09:06:37.019Z,19.30
2023-05-06T09:11:37.998Z,19.40
2023-05-06T09:26:46.456Z,20.00
2023-05-06T09:31:46.265Z,20.10
2023-05-06T09:41:44.749Z,20.70
2023-05-06T09:51:47.715Z,21.40
2023-05-06T09:56:39.896Z,21.00
2023-05-06T10:27:31.154Z,22.10
2023-05-06T10:32:29.222Z,22.80
2023-05-06T11:03:32.269Z,23.00
2023-05-06T11:13:43.670Z,22.90
2023-05-06T11:39:21.472Z,23.40
2023-05-06T11:55:05.773Z,23.50
2023-05-06T11:59:59.465Z,23.90
2023-05-06T12:05:00.213Z,23.80
2023-05-06T15:26:14.655Z,23.20
2023-05-06T15:41:19.565Z,23.30
2023-05-06T15:56:39.365Z,23.60
2023-05-06T16:16:57.254Z,23.40
2023-05-06T16:26:57.188Z,23.40
2023-05-06T17:58:46.405Z,21.60
2023-05-06T18:08:49.135Z,21.40
2023-05-06T18:13:42.106Z,21.10
2023-05-06T18:18:34.483Z,20.80
2023-05-06T18:28:36.502Z,20.50
2023-05-06T19:04:15.062Z,19.50
2023-05-06T19:09:09.335Z,19.20
2023-05-06T20:41:17.508Z,17.20
2023-05-06T20:46:11.201Z,17.10
2023-05-06T20:51:03.689Z,16.90
2023-05-06T20:55:56.831Z,16.80
2023-05-06T21:11:06.060Z,16.60
2023-05-06T21:26:25.348Z,16.30
2023-05-06T21:46:53.576Z,16.30
2023-05-06T22:27:54.135Z,16.10
